createdAt,value
2022-09-10T00:01:36.817Z,100915.49
2022-09-10T00:04:10.883Z,100914.20
2022-09-10T00:06:39.381Z,100910.83
2022-09-10T00:09:08.730Z,100910.98
2022-09-10T00:11:39.066Z,100914.80
2022-09-10T00:14:11.996Z,100918.50
2022-09-10T00:16:40.573Z,100914.60
2022-09-10T00:19:09.075Z,100913.15
2022-09-10T00:21:37.503Z,100912.62
2022-09-10T00:24:06.677Z,100912.95
2022-09-10T00:26:42.275Z,100912.73
2022-09-10T00:29:16.918Z,100915.16
2022-09-10T00:31:45.684Z,100914.23
2022-09-10T00:34:14.293Z,100914.21
2022-09-10T00:36:43.753Z,100909.80
2022-09-10T00:39:14.096Z,100909.33
2022-09-10T00:41:45.475Z,100909.16
2022-09-10T00:44:51.311Z,100907.23
2022-09-10T00:47:24.435Z,100910.01
2022-09-10T00:49:58.201Z,100912.95
2022-09-10T00:52:28.785Z,100910.81
2022-09-10T00:54:58.755Z,100908.66
2022-09-10T00:57:29.095Z,100902.11
2022-09-10T01:00:01.895Z,100900.90
2022-09-10T01:02:30.457Z,100904.09
2022-09-10T01:05:00.054Z,100908.48
2022-09-10T01:07:30.279Z,100907.23
2022-09-10T01:10:01.100Z,100902.82
2022-09-10T01:12:50.601Z,100898.63
2022-09-10T01:15:30.311Z,100899.81
2022-09-10T01:18:11.007Z,100896.84
2022-09-10T01:21:14.661Z,100894.96
2022-09-10T01:24:43.759Z,100888.74
2022-09-10T01:27:29.054Z,100888.09
2022-09-10T01:30:05.817Z,100883.85
2022-09-10T01:32:44.502Z,100880.70
2022-09-10T01:35:17.379Z,100875.05
2022-09-10T01:37:51.308Z,100868.86
2022-09-10T01:40:29.025Z,100872.08
2022-09-10T01:43:06.503Z,100864.66
2022-09-10T01:45:49.079Z,100863.42
2022-09-10T01:48:34.633Z,100865.55
2022-09-10T01:51:10.332Z,100866.06
2022-09-10T01:53:55.890Z,100868.19
2022-09-10T01:56:37.583Z,100864.14
2022-09-10T01:59:16.100Z,100861.70
2022-09-10T02:01:48.721Z,100856.86
2022-09-10T02:04:19.409Z,100856.26
2022-09-10T02:06:50.604Z,100850.37
2022-09-10T02:09:19.740Z,100851.82
2022-09-10T02:11:50.251Z,100855.19
2022-09-10T02:14:35.414Z,100853.20
2022-09-10T02:17:14.637Z,100850.32
2022-09-10T02:19:45.674Z,100850.97
2022-09-10T02:22:14.753Z,100848.29
2022-09-10T02:24:43.995Z,100848.27
2022-09-10T02:27:13.928Z,100851.27
2022-09-10T02:29:42.577Z,100845.95
2022-09-10T02:32:11.316Z,100846.25
2022-09-10T02:34:39.718Z,100844.48
2022-09-10T02:37:08.274Z,100841.29
2022-09-10T02:39:37.881Z,100835.95
2022-09-10T02:42:07.218Z,100839.13
2022-09-10T02:44:36.333Z,100837.65
2022-09-10T02:47:05.674Z,100833.52
2022-09-10T02:49:34.453Z,100834.70
2022-09-10T02:52:03.959Z,100838.42
2022-09-10T02:54:32.792Z,100842.11
2022-09-10T02:57:01.179Z,100848.29
2022-09-10T02:59:30.322Z,100856.36
2022-09-10T03:01:59.297Z,100852.30
2022-09-10T03:04:28.063Z,100848.23
2022-09-10T03:06:56.473Z,100849.73
2022-09-10T03:09:28.334Z,100851.02
2022-09-10T03:11:56.881Z,100844.82
2022-09-10T03:14:25.381Z,100848.96
2022-09-10T03:16:54.674Z,100847.77
2022-09-10T03:19:26.065Z,100842.41
2022-09-10T03:21:54.420Z,100836.90
2022-09-10T03:24:24.612Z,100836.91
2022-09-10T03:26:53.203Z,100833.84
2022-09-10T03:29:23.324Z,100833.66
2022-09-10T03:31:51.984Z,100836.11
2022-09-10T03:34:21.395Z,100834.93
2022-09-10T03:36:50.857Z,100832.48
2022-09-10T03:39:19.258Z,100829.77
2022-09-10T03:41:47.803Z,100831.91
2022-09-10T03:44:16.729Z,100827.83
2022-09-10T03:46:48.011Z,100829.23
2022-09-10T03:49:18.127Z,100829.61
2022-09-10T03:51:47.892Z,100832.08
2022-09-10T03:54:17.182Z,100829.20
2022-09-10T03:56:45.924Z,100835.58
2022-09-10T03:59:14.381Z,100838.73
2022-09-10T04:01:44.640Z,100836.42
2022-09-10T04:04:14.335Z,100839.96
2022-09-10T04:06:43.956Z,100837.32
2022-09-10T04:09:12.515Z,100833.98
2022-09-10T04:11:41.762Z,100833.98
2022-09-10T04:14:10.453Z,100835.06
2022-09-10T04:16:41.426Z,100832.81
2022-09-10T04:19:12.535Z,100830.73
2022-09-10T04:21:41.450Z,100834.65
2022-09-10T04:24:12.121Z,100838.60
2022-09-10T04:26:40.582Z,100840.36
2022-09-10T04:29:09.001Z,100838.34
2022-09-10T04:31:38.262Z,100836.33
2022-09-10T04:34:12.303Z,100834.89
2022-09-10T04:36:41.068Z,100835.77
2022-09-10T04:39:10.416Z,100828.10
2022-09-10T04:41:39.706Z,100830.31
2022-09-10T04:44:09.283Z,100832.25
2022-09-10T04:46:38.129Z,100831.73
2022-09-10T04:49:10.770Z,100831.19
2022-09-10T04:51:39.378Z,100832.42
2022-09-10T04:54:08.219Z,100831.66
2022-09-10T04:56:38.664Z,100831.21
2022-09-10T04:59:07.270Z,100832.58
2022-09-10T05:01:38.415Z,100834.30
2022-09-10T05:04:07.539Z,100827.91
2022-09-10T05:06:38.349Z,100829.73
2022-09-10T05:09:09.151Z,100829.58
2022-09-10T05:11:37.602Z,100829.19
2022-09-10T05:14:07.077Z,100829.38
2022-09-10T05:16:36.746Z,100825.95
2022-09-10T05:19:05.683Z,100825.24
2022-09-10T05:21:37.999Z,100823.13
2022-09-10T05:24:07.305Z,100826.47
2022-09-10T05:26:35.894Z,100827.91
2022-09-10T05:29:04.571Z,100830.35
2022-09-10T05:31:33.264Z,100831.39
2022-09-10T05:34:01.921Z,100830.50
2022-09-10T05:36:32.109Z,100827.30
2022-09-10T05:39:02.637Z,100830.86
2022-09-10T05:41:32.455Z,100828.77
2022-09-10T05:44:02.459Z,100825.12
2022-09-10T05:46:32.408Z,100819.48
2022-09-10T05:49:07.985Z,100820.81
2022-09-10T05:51:36.487Z,100822.30
2022-09-10T05:54:06.001Z,100824.66
2022-09-10T05:56:34.654Z,100821.48
2022-09-10T05:59:03.826Z,100823.09
2022-09-10T06:01:33.371Z,100825.39
2022-09-10T06:04:04.090Z,100826.30
2022-09-10T06:06:32.944Z,100826.87
2022-09-10T06:09:09.009Z,100824.20
2022-09-10T06:11:56.849Z,100826.17
2022-09-10T06:14:25.840Z,100826.39
2022-09-10T06:16:55.235Z,100832.59
2022-09-10T06:19:24.832Z,100832.30
2022-09-10T06:21:53.318Z,100831.34
2022-09-10T06:24:23.060Z,100829.03
2022-09-10T06:26:53.884Z,100829.48
2022-09-10T06:29:24.136Z,100829.77
2022-09-10T06:31:52.993Z,100829.36
2022-09-10T06:34:22.023Z,100823.96
2022-09-10T06:36:50.935Z,100819.12
2022-09-10T06:39:19.719Z,100819.18
2022-09-10T06:41:54.941Z,100822.42
2022-09-10T06:44:59.542Z,100818.29
2022-09-10T06:48:34.753Z,100817.17
2022-09-10T06:50:52.489Z,100816.96
2022-09-10T06:53:21.895Z,100812.13
2022-09-10T06:55:52.281Z,100808.23
2022-09-10T06:58:23.937Z,100808.15
2022-09-10T07:00:53.288Z,100811.26
2022-09-10T07:03:23.549Z,100804.70
2022-09-10T07:05:55.048Z,100806.59
2022-09-10T07:08:26.553Z,100813.19
2022-09-10T07:11:00.847Z,100815.23
2022-09-10T07:13:29.331Z,100817.26
2022-09-10T07:15:57.936Z,100816.21
2022-09-10T07:18:28.149Z,100819.93
2022-09-10T07:21:07.680Z,100818.90
2022-09-10T07:23:36.103Z,100818.28
2022-09-10T07:26:54.498Z,100816.19
2022-09-10T07:29:23.418Z,100818.39
2022-09-10T07:31:53.508Z,100818.98
2022-09-10T07:34:24.934Z,100821.27
2022-09-10T07:36:56.306Z,100816.47
2022-09-10T07:39:26.317Z,100820.55
2022-09-10T07:41:57.370Z,100820.95
2022-09-10T07:44:29.257Z,100819.10
2022-09-10T07:47:02.829Z,100817.73
2022-09-10T07:49:32.010Z,100817.48
2022-09-10T07:52:00.714Z,100820.88
2022-09-10T07:54:37.513Z,100819.31
2022-09-10T07:57:06.492Z,100819.61
2022-09-10T07:59:36.605Z,100819.88
2022-09-10T08:02:06.017Z,100819.62
2022-09-10T08:04:37.137Z,100819.91
2022-09-10T08:07:08.566Z,100821.83
2022-09-10T08:09:38.862Z,100824.40
2022-09-10T08:12:09.375Z,100821.39
2022-09-10T08:14:37.783Z,100826.32
2022-09-10T08:17:07.193Z,100822.75
2022-09-10T08:19:39.697Z,100822.31
2022-09-10T08:22:12.809Z,100822.91
2022-09-10T08:24:47.287Z,100824.83
2022-09-10T08:27:16.836Z,100828.45
2022-09-10T08:29:45.666Z,100825.23
2022-09-10T08:32:15.269Z,100825.86
2022-09-10T08:34:43.889Z,100821.69
2022-09-10T08:37:13.982Z,100817.89
2022-09-10T08:39:42.641Z,100819.37
2022-09-10T08:42:19.159Z,100818.33
2022-09-10T08:44:53.442Z,100822.90
2022-09-10T08:47:32.864Z,100821.73
2022-09-10T08:50:13.091Z,100820.27
2022-09-10T08:52:48.352Z,100818.61
2022-09-10T08:55:29.337Z,100814.16
2022-09-10T08:58:03.314Z,100810.70
2022-09-10T09:00:37.381Z,100815.33
2022-09-10T09:03:16.580Z,100814.70
2022-09-10T09:05:49.261Z,100817.76
2022-09-10T09:08:21.495Z,100822.81
2022-09-10T09:10:55.363Z,100818.75
2022-09-10T09:13:45.140Z,100818.07
2022-09-10T09:16:28.478Z,100821.02
2022-09-10T09:19:09.969Z,100818.17
2022-09-10T09:21:50.291Z,100820.23
2022-09-10T09:24:24.243Z,100816.14
2022-09-10T09:27:09.697Z,100818.25
2022-09-10T09:29:48.060Z,100821.62
2022-09-10T09:32:20.329Z,100818.17
2022-09-10T09:34:52.035Z,100822.77
2022-09-10T09:37:23.808Z,100823.30
2022-09-10T09:40:03.566Z,100827.55
2022-09-10T09:42:43.752Z,100831.73
2022-09-10T09:45:23.606Z,100834.05
2022-09-10T09:47:53.862Z,100831.67
2022-09-10T09:50:22.588Z,100830.00
2022-09-10T09:52:55.687Z,100829.40
2022-09-10T09:55:32.912Z,100830.44
2022-09-10T09:58:29.131Z,100829.29
2022-09-10T10:01:12.446Z,100827.86
2022-09-10T10:03:48.037Z,100828.29
2022-09-10T10:06:19.012Z,100827.45
2022-09-10T10:08:55.636Z,100830.06
2022-09-10T10:11:40.370Z,100826.09
2022-09-10T10:14:40.839Z,100827.25
2022-09-10T10:17:29.732Z,100827.65
2022-09-10T10:20:06.697Z,100831.20
2022-09-10T10:22:36.422Z,100825.31
2022-09-10T10:25:26.770Z,100825.14
2022-09-10T10:27:55.933Z,100817.43
2022-09-10T10:30:25.056Z,100818.46
2022-09-10T10:32:55.745Z,100817.52
2022-09-10T10:35:40.725Z,100812.20
2022-09-10T10:38:31.568Z,100818.51
2022-09-10T10:41:39.885Z,100817.41
2022-09-10T10:44:33.489Z,100811.64
2022-09-10T10:47:18.165Z,100813.39
2022-09-10T10:49:56.861Z,100812.48
2022-09-10T10:52:35.959Z,100815.23
2022-09-10T10:56:06.469Z,100810.70
2022-09-10T11:09:41.098Z,100800.11
2022-09-10T11:12:18.013Z,100798.94
2022-09-10T11:14:58.806Z,100801.52
2022-09-10T11:17:39.909Z,100801.77
2022-09-10T11:20:28.357Z,100800.08
2022-09-10T11:23:14.847Z,100792.76
2022-09-10T11:25:58.958Z,100791.45
2022-09-10T11:28:37.495Z,100796.58
2022-09-10T11:31:16.324Z,100792.29
2022-09-10T11:33:59.243Z,100792.14
2022-09-10T11:36:39.393Z,100789.38
2022-09-10T11:39:19.604Z,100787.54
2022-09-10T11:41:55.820Z,100787.44
2022-09-10T11:44:42.750Z,100787.18
2022-09-10T11:47:20.533Z,100786.95
2022-09-10T11:50:01.245Z,100784.76
2022-09-10T11:52:36.026Z,100782.06
2022-09-10T11:55:14.785Z,100778.05
2022-09-10T11:58:04.740Z,100776.30
2022-09-10T12:00:49.376Z,100773.96
2022-09-10T12:03:41.233Z,100769.99
2022-09-10T12:06:22.367Z,100766.63
2022-09-10T12:09:07.590Z,100762.41
2022-09-10T12:11:51.365Z,100761.61
2022-09-10T12:14:23.438Z,100761.70
2022-09-10T12:16:59.392Z,100762.98
2022-09-10T12:19:36.703Z,100763.08
2022-09-10T12:22:18.338Z,100759.87
2022-09-10T12:24:56.726Z,100760.91
2022-09-10T12:27:47.221Z,100760.34
2022-09-10T12:31:02.952Z,100760.48
2022-09-10T12:34:16.452Z,100757.77
2022-09-10T12:37:24.200Z,100756.34
2022-09-10T12:40:32.173Z,100754.25
2022-09-10T12:43:40.313Z,100753.58
2022-09-10T12:46:24.470Z,100753.77
2022-09-10T12:49:12.989Z,100750.27
2022-09-10T12:51:58.641Z,100752.14
2022-09-10T12:54:55.865Z,100750.11
2022-09-10T12:57:38.536Z,100752.13
2022-09-10T13:00:23.238Z,100750.95
2022-09-10T13:02:59.242Z,100753.42
2022-09-10T13:05:36.730Z,100750.17
2022-09-10T13:08:20.553Z,100749.05
2022-09-10T13:11:15.859Z,100747.08
2022-09-10T13:13:54.822Z,100748.08
2022-09-10T13:16:41.979Z,100746.14
2022-09-10T13:19:50.045Z,100749.33
2022-09-10T13:22:58.014Z,100749.89
2022-09-10T13:25:44.679Z,100745.64
2022-09-10T13:28:52.308Z,100745.66
2022-09-10T13:31:28.594Z,100744.45
2022-09-10T13:34:47.272Z,100743.08
2022-09-10T13:37:37.357Z,100745.92
2022-09-10T13:40:34.859Z,100743.94
2022-09-10T13:43:19.167Z,100741.23
2022-09-10T13:45:55.251Z,100740.86
2022-09-10T13:48:30.851Z,100742.56
2022-09-10T13:51:16.438Z,100744.49
2022-09-10T13:53:50.129Z,100742.64
2022-09-10T13:56:26.190Z,100738.13
2022-09-10T13:59:02.183Z,100740.13
2022-09-10T14:01:56.841Z,100736.84
2022-09-10T14:04:31.962Z,100733.59
2022-09-10T14:07:13.178Z,100734.05
2022-09-10T14:09:47.106Z,100731.98
2022-09-10T14:12:26.227Z,100733.17
2022-09-10T14:15:01.541Z,100727.77
2022-09-10T14:17:39.025Z,100725.20
2022-09-10T14:20:23.610Z,100716.79
2022-09-10T14:23:02.489Z,100719.77
2022-09-10T14:25:36.915Z,100718.02
2022-09-10T14:28:24.253Z,100716.39
2022-09-10T14:31:21.657Z,100713.30
2022-09-10T14:33:53.915Z,100711.92
2022-09-10T14:36:34.826Z,100713.10
2022-09-10T14:39:16.419Z,100712.96
2022-09-10T14:41:49.465Z,100712.89
2022-09-10T14:44:31.514Z,100710.26
2022-09-10T14:47:14.581Z,100707.35
2022-09-10T14:49:47.231Z,100700.14
2022-09-10T14:52:20.207Z,100705.84
2022-09-10T14:54:52.322Z,100701.81
2022-09-10T14:57:24.337Z,100702.42
2022-09-10T14:59:57.837Z,100701.17
2022-09-10T15:02:30.949Z,100698.56
2022-09-10T15:05:07.787Z,100704.44
2022-09-10T15:07:43.058Z,100700.80
2022-09-10T15:10:15.385Z,100703.92
2022-09-10T15:12:52.185Z,100704.40
2022-09-10T15:15:25.083Z,100703.98
2022-09-10T15:17:57.966Z,100702.85
2022-09-10T15:20:33.387Z,100701.91
2022-09-10T15:23:05.287Z,100702.63
2022-09-10T15:25:41.594Z,100698.14
2022-09-10T15:28:13.639Z,100699.92
2022-09-10T15:30:45.580Z,100697.70
2022-09-10T15:33:17.982Z,100694.29
2022-09-10T15:35:50.048Z,100696.75
2022-09-10T15:38:22.258Z,100696.61
2022-09-10T15:40:56.530Z,100699.65
2022-09-10T15:43:28.549Z,100697.05
2022-09-10T15:46:04.189Z,100693.97
2022-09-10T15:48:36.891Z,100693.66
2022-09-10T15:51:13.897Z,100694.34
2022-09-10T15:53:49.009Z,100689.86
2022-09-10T15:56:24.359Z,100688.77
2022-09-10T15:58:57.988Z,100689.15
2022-09-10T16:01:36.726Z,100687.68
2022-09-10T16:04:09.908Z,100692.58
2022-09-10T16:06:42.144Z,100689.55
2022-09-10T16:09:15.367Z,100691.33
2022-09-10T16:11:48.280Z,100691.23
2022-09-10T16:14:20.893Z,100692.96
2022-09-10T16:16:56.323Z,100697.33
2022-09-10T16:19:29.569Z,100702.34
2022-09-10T16:22:01.433Z,100704.04
2022-09-10T16:24:33.533Z,100704.81
2022-09-10T16:27:05.854Z,100705.98
2022-09-10T16:29:40.091Z,100706.34
2022-09-10T16:32:12.921Z,100705.39
2022-09-10T16:34:45.082Z,100703.02
2022-09-10T16:37:17.421Z,100701.52
2022-09-10T16:39:49.337Z,100702.38
2022-09-10T16:42:21.182Z,100698.56
2022-09-10T16:44:52.969Z,100700.13
2022-09-10T16:47:25.528Z,100699.22
2022-09-10T16:49:57.401Z,100699.58
2022-09-10T16:52:30.919Z,100695.99
2022-09-10T16:55:04.834Z,100696.16
2022-09-10T16:57:36.863Z,100694.09
2022-09-10T17:00:11.083Z,100694.33
2022-09-10T17:02:43.470Z,100693.35
2022-09-10T17:05:15.674Z,100696.86
2022-09-10T17:07:49.298Z,100698.04
2022-09-10T17:10:23.513Z,100702.30
2022-09-10T17:12:55.730Z,100700.80
2022-09-10T17:15:30.206Z,100699.19
2022-09-10T17:18:02.126Z,100700.79
2022-09-10T17:20:35.672Z,100703.93
2022-09-10T17:23:09.224Z,100703.85
2022-09-10T17:25:41.172Z,100702.20
2022-09-10T17:28:16.287Z,100704.98
2022-09-10T17:30:50.986Z,100708.85
2022-09-10T17:33:29.443Z,100709.85
2022-09-10T17:36:03.573Z,100710.35
2022-09-10T17:38:36.879Z,100709.41
2022-09-10T17:41:14.628Z,100712.25
2022-09-10T17:43:47.167Z,100708.31
2022-09-10T17:46:23.482Z,100709.36
2022-09-10T17:48:56.658Z,100710.98
2022-09-10T17:51:30.913Z,100709.38
2022-09-10T17:54:05.800Z,100703.59
2022-09-10T17:56:43.652Z,100705.50
2022-09-10T17:59:16.836Z,100703.56
2022-09-10T18:01:52.493Z,100701.23
2022-09-10T18:04:27.758Z,100702.23
2022-09-10T18:07:01.273Z,100706.92
2022-09-10T18:09:33.134Z,100705.94
2022-09-10T18:12:05.877Z,100705.31
2022-09-10T18:14:38.595Z,100705.26
2022-09-10T18:17:10.546Z,100707.71
2022-09-10T18:19:42.581Z,100707.30
2022-09-10T18:22:14.928Z,100711.55
2022-09-10T18:24:47.188Z,100712.21
2022-09-10T18:27:18.963Z,100714.15
2022-09-10T18:29:51.660Z,100714.67
2022-09-10T18:32:26.208Z,100713.94
2022-09-10T18:34:58.512Z,100718.36
2022-09-10T18:37:31.353Z,100718.48
2022-09-10T18:40:14.455Z,100717.51
2022-09-10T18:42:51.328Z,100719.05
2022-09-10T18:45:50.973Z,100711.77
2022-09-10T18:48:33.106Z,100711.35
2022-09-10T18:51:08.587Z,100709.73
2022-09-10T18:53:45.885Z,100712.85
2022-09-10T18:56:21.360Z,100712.06
2022-09-10T18:58:55.778Z,100711.10
2022-09-10T19:02:30.489Z,100708.17
2022-09-10T19:06:08.250Z,100703.38
2022-09-10T19:08:44.964Z,100707.48
2022-09-10T19:11:19.042Z,100707.28
2022-09-10T19:13:52.963Z,100704.09
2022-09-10T19:16:27.903Z,100703.04
2022-09-10T19:19:01.520Z,100699.36
2022-09-10T19:21:36.782Z,100702.04
2022-09-10T19:24:54.472Z,100700.40
2022-09-10T19:27:41.316Z,100695.60
2022-09-10T19:30:15.430Z,100695.34
2022-09-10T19:32:47.394Z,100690.38
2022-09-10T19:35:20.121Z,100694.41
2022-09-10T19:38:36.764Z,100691.60
2022-09-10T19:41:18.929Z,100693.89
2022-09-10T19:43:52.522Z,100693.02
2022-09-10T19:46:28.408Z,100694.27
2022-09-10T19:49:01.539Z,100693.92
2022-09-10T19:51:35.936Z,100693.52
2022-09-10T19:54:12.050Z,100693.36
2022-09-10T19:56:44.424Z,100691.70
2022-09-10T19:59:16.287Z,100691.01
2022-09-10T20:01:48.815Z,100687.61
2022-09-10T20:04:20.748Z,100691.15
2022-09-10T20:06:52.925Z,100690.23
2022-09-10T20:09:24.741Z,100689.86
2022-09-10T20:11:57.177Z,100691.09
2022-09-10T20:14:29.359Z,100691.45
2022-09-10T20:17:01.725Z,100692.15
2022-09-10T20:19:33.590Z,100688.98
2022-09-10T20:22:05.591Z,100692.20
2022-09-10T20:24:37.913Z,100687.95
2022-09-10T20:27:10.146Z,100687.55
2022-09-10T20:29:43.347Z,100686.77
2022-09-10T20:32:15.306Z,100685.30
2022-09-10T20:34:47.434Z,100685.42
2022-09-10T20:37:19.624Z,100688.94
2022-09-10T20:39:51.952Z,100687.30
2022-09-10T20:42:25.485Z,100683.70
2022-09-10T20:44:57.535Z,100683.29
2022-09-10T20:47:31.510Z,100685.25
2022-09-10T20:50:03.304Z,100683.52
2022-09-10T20:52:35.367Z,100680.19
2022-09-10T20:55:08.786Z,100679.67
2022-09-10T20:57:40.537Z,100676.83
2022-09-10T21:00:15.247Z,100678.38
2022-09-10T21:02:48.146Z,100677.86
2022-09-10T21:05:21.089Z,100678.00
2022-09-10T21:07:53.054Z,100679.23
2022-09-10T21:10:24.876Z,100679.52
2022-09-10T21:13:05.178Z,100677.84
2022-09-10T21:15:38.119Z,100676.77
2022-09-10T21:18:10.458Z,100675.27
2022-09-10T21:20:42.430Z,100673.41
2022-09-10T21:23:14.196Z,100675.30
2022-09-10T21:25:53.639Z,100674.26
2022-09-10T21:28:27.225Z,100674.02
2022-09-10T21:31:05.158Z,100674.83
2022-09-10T21:33:37.910Z,100669.13
2022-09-10T21:36:12.401Z,100669.84
2022-09-10T21:38:47.422Z,100668.42
2022-09-10T21:41:24.339Z,100663.67
2022-09-10T21:43:56.295Z,100667.25
2022-09-10T21:46:29.529Z,100664.75
2022-09-10T21:49:02.351Z,100665.45
2022-09-10T21:51:34.500Z,100663.46
2022-09-10T21:54:06.717Z,100663.10
2022-09-10T21:56:38.463Z,100659.38
2022-09-10T21:59:13.073Z,100659.41
2022-09-10T22:01:46.875Z,100655.20
2022-09-10T22:04:22.776Z,100654.48
2022-09-10T22:06:56.725Z,100656.62
2022-09-10T22:09:28.485Z,100652.94
2022-09-10T22:12:00.325Z,100648.02
2022-09-10T22:14:33.313Z,100645.16
2022-09-10T22:17:05.562Z,100645.34
2022-09-10T22:19:37.680Z,100646.77
2022-09-10T22:22:11.290Z,100649.80
2022-09-10T22:24:43.100Z,100644.14
2022-09-10T22:27:14.984Z,100649.98
2022-09-10T22:29:46.925Z,100650.35
2022-09-10T22:32:19.633Z,100649.69
2022-09-10T22:34:51.818Z,100651.45
2022-09-10T22:37:23.551Z,100650.33
2022-09-10T22:39:55.350Z,100648.44
2022-09-10T22:42:27.321Z,100648.42
2022-09-10T22:45:00.920Z,100645.94
2022-09-10T22:47:33.053Z,100646.27
2022-09-10T22:50:05.368Z,100643.07
2022-09-10T22:52:38.363Z,100649.29
2022-09-10T22:55:12.578Z,100642.66
2022-09-10T22:57:45.291Z,100642.55
2022-09-10T23:00:17.731Z,100643.55
2022-09-10T23:02:49.593Z,100644.56
2022-09-10T23:05:22.068Z,100642.92
2022-09-10T23:07:53.904Z,100646.63
2022-09-10T23:10:26.461Z,100645.41
2022-09-10T23:12:59.446Z,100644.34
2022-09-10T23:15:34.730Z,100643.63
2022-09-10T23:18:06.655Z,100639.52
2022-09-10T23:20:38.555Z,100636.77
2022-09-10T23:23:10.580Z,100635.02
2022-09-10T23:25:43.571Z,100633.98
2022-09-10T23:28:15.421Z,100633.28
2022-09-10T23:30:47.176Z,100635.61
2022-09-10T23:33:19.352Z,100632.11
2022-09-10T23:35:53.568Z,100634.04
2022-09-10T23:38:26.060Z,100635.58
2022-09-10T23:40:59.255Z,100636.86
2022-09-10T23:43:31.466Z,100634.92
2022-09-10T23:46:03.887Z,100635.52
2022-09-10T23:48:36.035Z,100633.61
2022-09-10T23:51:08.983Z,100629.56
2022-09-10T23:53:41.013Z,100631.36
2022-09-10T23:56:13.203Z,100628.73
2022-09-10T23:58:45.255Z,100627.39
